Terminal Aerodrome Forecast
Issued by NWS

Home | Current Version | Previous Version | Text Only | Print | Product List | Glossary On
Versions: 1 2 3 4 5 6 7 8 9 10 11 12
000
FTUS43 KILX 030524
TAFCMI
TAF
KCMI 030524Z 0306/0406 21005KT P6SM SCT050 BKN090
     FM030800 22009KT P6SM SCT050 BKN090
     FM031200 32008KT P6SM SCT090
     FM040100 VRB03KT P6SM SKC=

USA.gov is the U.S. government's official web portal to all federal, state and local government web resources and services.